sensor_id;sensor_type;location;lat;lon;timestamp;P1;durP1;ratioP1;P2;durP2;ratioP2
78205;SDS011;67480;48.920;12.880;2023-05-16T00:02:17;6.97;;;6.28;;
78205;SDS011;67480;48.920;12.880;2023-05-16T00:04:43;7.03;;;6.25;;
78205;SDS011;67480;48.920;12.880;2023-05-16T00:07:09;7.35;;;6.65;;
78205;SDS011;67480;48.920;12.880;2023-05-16T00:09:34;7.15;;;6.45;;
78205;SDS011;67480;48.920;12.880;2023-05-16T00:12:00;9.27;;;6.43;;
78205;SDS011;67480;48.920;12.880;2023-05-16T00:14:25;7.97;;;6.85;;
78205;SDS011;67480;48.920;12.880;2023-05-16T00:16:52;7.38;;;6.47;;
78205;SDS011;67480;48.920;12.880;2023-05-16T00:19:17;7.75;;;6.45;;
78205;SDS011;67480;48.920;12.880;2023-05-16T00:21:44;7.35;;;6.40;;
78205;SDS011;67480;48.920;12.880;2023-05-16T00:24:09;10.63;;;6.38;;
78205;SDS011;67480;48.920;12.880;2023-05-16T00:26:35;7.00;;;6.35;;
78205;SDS011;67480;48.920;12.880;2023-05-16T00:29:00;7.75;;;6.63;;
78205;SDS011;67480;48.920;12.880;2023-05-16T00:31:26;7.30;;;6.57;;
78205;SDS011;67480;48.920;12.880;2023-05-16T00:33:51;6.93;;;6.28;;
78205;SDS011;67480;48.920;12.880;2023-05-16T00:36:17;6.78;;;6.03;;
78205;SDS011;67480;48.920;12.880;2023-05-16T00:38:42;7.45;;;6.32;;
78205;SDS011;67480;48.920;12.880;2023-05-16T00:41:07;7.72;;;6.90;;
78205;SDS011;67480;48.920;12.880;2023-05-16T00:43:32;12.93;;;7.00;;
78205;SDS011;67480;48.920;12.880;2023-05-16T00:45:58;8.23;;;7.13;;
78205;SDS011;67480;48.920;12.880;2023-05-16T00:48:24;8.88;;;7.13;;
78205;SDS011;67480;48.920;12.880;2023-05-16T00:50:50;9.07;;;7.18;;
78205;SDS011;67480;48.920;12.880;2023-05-16T00:53:16;7.53;;;6.65;;
78205;SDS011;67480;48.920;12.880;2023-05-16T00:55:42;8.15;;;7.32;;
78205;SDS011;67480;48.920;12.880;2023-05-16T00:58:08;7.78;;;6.65;;
78205;SDS011;67480;48.920;12.880;2023-05-16T01:00:33;8.15;;;6.93;;
78205;SDS011;67480;48.920;12.880;2023-05-16T01:02:58;9.73;;;7.13;;
78205;SDS011;67480;48.920;12.880;2023-05-16T01:05:24;8.52;;;6.82;;
78205;SDS011;67480;48.920;12.880;2023-05-16T01:07:49;9.93;;;6.93;;
78205;SDS011;67480;48.920;12.880;2023-05-16T01:10:15;8.07;;;6.60;;
78205;SDS011;67480;48.920;12.880;2023-05-16T01:18:41;8.93;;;6.78;;
78205;SDS011;67480;48.920;12.880;2023-05-16T01:21:26;8.07;;;6.50;;
78205;SDS011;67480;48.920;12.880;2023-05-16T01:26:37;7.88;;;7.13;;
78205;SDS011;67480;48.920;12.880;2023-05-16T01:29:05;7.72;;;6.90;;
78205;SDS011;67480;48.920;12.880;2023-05-16T01:31:31;7.97;;;7.18;;
78205;SDS011;67480;48.920;12.880;2023-05-16T01:33:56;9.43;;;6.80;;
78205;SDS011;67480;48.920;12.880;2023-05-16T01:36:38;8.32;;;7.35;;
78205;SDS011;67480;48.920;12.880;2023-05-16T01:39:14;7.68;;;6.93;;
78205;SDS011;67480;48.920;12.880;2023-05-16T01:42:00;6.97;;;6.25;;
78205;SDS011;67480;48.920;12.880;2023-05-16T01:44:35;7.53;;;6.63;;
78205;SDS011;67480;48.920;12.880;2023-05-16T01:47:15;8.25;;;6.55;;
78205;SDS011;67480;48.920;12.880;2023-05-16T01:49:59;7.15;;;6.53;;
78205;SDS011;67480;48.920;12.880;2023-05-16T01:52:33;7.63;;;6.68;;
78205;SDS011;67480;48.920;12.880;2023-05-16T01:55:02;9.98;;;7.70;;
78205;SDS011;67480;48.920;12.880;2023-05-16T01:57:30;11.60;;;7.18;;
78205;SDS011;67480;48.920;12.880;2023-05-16T01:59:56;9.02;;;7.53;;
78205;SDS011;67480;48.920;12.880;2023-05-16T02:02:22;9.07;;;8.18;;
78205;SDS011;67480;48.920;12.880;2023-05-16T02:04:48;9.27;;;8.35;;
78205;SDS011;67480;48.920;12.880;2023-05-16T02:07:14;20.15;;;17.23;;
78205;SDS011;67480;48.920;12.880;2023-05-16T02:09:40;18.05;;;15.57;;
78205;SDS011;67480;48.920;12.880;2023-05-16T02:12:05;14.13;;;12.07;;
78205;SDS011;67480;48.920;12.880;2023-05-16T02:14:31;17.63;;;14.18;;
78205;SDS011;67480;48.920;12.880;2023-05-16T02:16:56;11.73;;;10.02;;
78205;SDS011;67480;48.920;12.880;2023-05-16T02:19:21;10.85;;;9.75;;
78205;SDS011;67480;48.920;12.880;2023-05-16T02:21:47;10.43;;;9.02;;
78205;SDS011;67480;48.920;12.880;2023-05-16T02:24:12;8.90;;;8.00;;
78205;SDS011;67480;48.920;12.880;2023-05-16T02:26:37;11.23;;;9.52;;
78205;SDS011;67480;48.920;12.880;2023-05-16T02:29:03;16.52;;;14.52;;
78205;SDS011;67480;48.920;12.880;2023-05-16T02:31:30;8.00;;;7.20;;
78205;SDS011;67480;48.920;12.880;2023-05-16T02:33:56;8.40;;;7.50;;
78205;SDS011;67480;48.920;12.880;2023-05-16T02:36:23;8.65;;;7.70;;
78205;SDS011;67480;48.920;12.880;2023-05-16T02:38:48;8.55;;;7.32;;
78205;SDS011;67480;48.920;12.880;2023-05-16T02:41:14;10.27;;;9.27;;
78205;SDS011;67480;48.920;12.880;2023-05-16T02:43:39;8.27;;;7.43;;
78205;SDS011;67480;48.920;12.880;2023-05-16T02:46:12;9.40;;;8.35;;
78205;SDS011;67480;48.920;12.880;2023-05-16T02:48:44;8.40;;;7.60;;
78205;SDS011;67480;48.920;12.880;2023-05-16T02:51:09;8.13;;;7.32;;
78205;SDS011;67480;48.920;12.880;2023-05-16T02:53:35;9.10;;;8.07;;
78205;SDS011;67480;48.920;12.880;2023-05-16T02:56:00;8.50;;;7.75;;
78205;SDS011;67480;48.920;12.880;2023-05-16T02:58:25;7.97;;;7.18;;
78205;SDS011;67480;48.920;12.880;2023-05-16T03:00:50;9.70;;;7.85;;
78205;SDS011;67480;48.920;12.880;2023-05-16T03:03:17;11.20;;;6.70;;
78205;SDS011;67480;48.920;12.880;2023-05-16T03:05:42;9.10;;;8.00;;
78205;SDS011;67480;48.920;12.880;2023-05-16T03:08:07;8.20;;;7.32;;
78205;SDS011;67480;48.920;12.880;2023-05-16T03:10:32;8.25;;;7.45;;
78205;SDS011;67480;48.920;12.880;2023-05-16T03:12:58;8.27;;;7.18;;
78205;SDS011;67480;48.920;12.880;2023-05-16T03:15:23;8.65;;;7.20;;
78205;SDS011;67480;48.920;12.880;2023-05-16T03:17:48;11.13;;;8.15;;
78205;SDS011;67480;48.920;12.880;2023-05-16T03:20:13;9.70;;;8.68;;
78205;SDS011;67480;48.920;12.880;2023-05-16T03:22:39;9.52;;;7.85;;
78205;SDS011;67480;48.920;12.880;2023-05-16T03:25:05;8.70;;;7.90;;
78205;SDS011;67480;48.920;12.880;2023-05-16T03:27:30;8.80;;;7.90;;
78205;SDS011;67480;48.920;12.880;2023-05-16T03:29:55;9.90;;;7.90;;
78205;SDS011;67480;48.920;12.880;2023-05-16T03:32:21;9.07;;;8.13;;
78205;SDS011;67480;48.920;12.880;2023-05-16T03:34:46;9.93;;;8.68;;
78205;SDS011;67480;48.920;12.880;2023-05-16T03:37:11;9.02;;;8.13;;
78205;SDS011;67480;48.920;12.880;2023-05-16T03:39:38;9.93;;;8.32;;
78205;SDS011;67480;48.920;12.880;2023-05-16T03:42:04;12.38;;;8.68;;
78205;SDS011;67480;48.920;12.880;2023-05-16T03:44:29;20.23;;;17.88;;
78205;SDS011;67480;48.920;12.880;2023-05-16T03:46:55;10.45;;;9.38;;
78205;SDS011;67480;48.920;12.880;2023-05-16T03:49:24;8.88;;;7.72;;
78205;SDS011;67480;48.920;12.880;2023-05-16T03:51:53;18.30;;;14.35;;
78205;SDS011;67480;48.920;12.880;2023-05-16T03:54:19;8.15;;;6.85;;
78205;SDS011;67480;48.920;12.880;2023-05-16T03:56:44;7.70;;;6.80;;
78205;SDS011;67480;48.920;12.880;2023-05-16T03:59:10;13.00;;;10.75;;
78205;SDS011;67480;48.920;12.880;2023-05-16T04:01:35;10.98;;;8.30;;
78205;SDS011;67480;48.920;12.880;2023-05-16T04:04:00;8.43;;;7.28;;
78205;SDS011;67480;48.920;12.880;2023-05-16T04:06:26;9.90;;;8.23;;
78205;SDS011;67480;48.920;12.880;2023-05-16T04:08:51;15.57;;;7.90;;
78205;SDS011;67480;48.920;12.880;2023-05-16T04:11:16;9.55;;;7.10;;
78205;SDS011;67480;48.920;12.880;2023-05-16T04:13:41;8.15;;;7.45;;
78205;SDS011;67480;48.920;12.880;2023-05-16T04:16:07;9.88;;;7.38;;
78205;SDS011;67480;48.920;12.880;2023-05-16T04:18:32;8.40;;;7.43;;
78205;SDS011;67480;48.920;12.880;2023-05-16T04:20:57;8.25;;;7.45;;
78205;SDS011;67480;48.920;12.880;2023-05-16T04:23:23;9.07;;;7.30;;
78205;SDS011;67480;48.920;12.880;2023-05-16T04:25:48;9.27;;;7.72;;
78205;SDS011;67480;48.920;12.880;2023-05-16T04:28:14;11.93;;;8.32;;
78205;SDS011;67480;48.920;12.880;2023-05-16T04:30:40;9.35;;;8.43;;
78205;SDS011;67480;48.920;12.880;2023-05-16T04:33:06;9.13;;;8.27;;
78205;SDS011;67480;48.920;12.880;2023-05-16T04:35:31;8.27;;;7.47;;
78205;SDS011;67480;48.920;12.880;2023-05-16T04:37:57;9.65;;;7.80;;
78205;SDS011;67480;48.920;12.880;2023-05-16T04:40:22;9.55;;;8.50;;
78205;SDS011;67480;48.920;12.880;2023-05-16T04:42:49;9.95;;;7.20;;
78205;SDS011;67480;48.920;12.880;2023-05-16T04:45:14;7.97;;;7.18;;
78205;SDS011;67480;48.920;12.880;2023-05-16T04:47:40;8.95;;;7.00;;
78205;SDS011;67480;48.920;12.880;2023-05-16T04:50:06;9.15;;;7.95;;
78205;SDS011;67480;48.920;12.880;2023-05-16T04:52:33;8.68;;;7.88;;
78205;SDS011;67480;48.920;12.880;2023-05-16T04:54:58;9.75;;;8.93;;
78205;SDS011;67480;48.920;12.880;2023-05-16T04:57:24;11.25;;;8.80;;
78205;SDS011;67480;48.920;12.880;2023-05-16T04:59:49;9.73;;;8.48;;
78205;SDS011;67480;48.920;12.880;2023-05-16T05:02:15;8.90;;;8.10;;
78205;SDS011;67480;48.920;12.880;2023-05-16T05:04:40;11.30;;;9.55;;
78205;SDS011;67480;48.920;12.880;2023-05-16T05:07:05;10.88;;;9.77;;
78205;SDS011;67480;48.920;12.880;2023-05-16T05:09:32;9.70;;;8.80;;
78205;SDS011;67480;48.920;12.880;2023-05-16T05:11:57;12.63;;;11.07;;
78205;SDS011;67480;48.920;12.880;2023-05-16T05:14:22;10.13;;;9.18;;
78205;SDS011;67480;48.920;12.880;2023-05-16T05:16:47;8.68;;;7.70;;
78205;SDS011;67480;48.920;12.880;2023-05-16T05:19:14;10.15;;;8.85;;
78205;SDS011;67480;48.920;12.880;2023-05-16T05:21:39;8.85;;;8.05;;
78205;SDS011;67480;48.920;12.880;2023-05-16T05:24:04;9.50;;;8.60;;
78205;SDS011;67480;48.920;12.880;2023-05-16T05:26:30;10.63;;;8.07;;
78205;SDS011;67480;48.920;12.880;2023-05-16T05:28:55;9.23;;;8.27;;
78205;SDS011;67480;48.920;12.880;2023-05-16T05:31:20;8.57;;;7.57;;
78205;SDS011;67480;48.920;12.880;2023-05-16T05:33:46;9.95;;;8.35;;
78205;SDS011;67480;48.920;12.880;2023-05-16T05:36:11;9.43;;;8.43;;
78205;SDS011;67480;48.920;12.880;2023-05-16T05:38:36;10.27;;;8.88;;
78205;SDS011;67480;48.920;12.880;2023-05-16T05:41:02;9.20;;;8.30;;
78205;SDS011;67480;48.920;12.880;2023-05-16T05:43:28;9.20;;;8.25;;
78205;SDS011;67480;48.920;12.880;2023-05-16T05:45:54;9.18;;;8.38;;
78205;SDS011;67480;48.920;12.880;2023-05-16T05:48:19;9.90;;;8.90;;
78205;SDS011;67480;48.920;12.880;2023-05-16T05:50:45;9.52;;;8.63;;
78205;SDS011;67480;48.920;12.880;2023-05-16T05:53:11;9.35;;;8.43;;
78205;SDS011;67480;48.920;12.880;2023-05-16T05:55:36;9.35;;;8.32;;
78205;SDS011;67480;48.920;12.880;2023-05-16T05:58:01;11.35;;;9.23;;
78205;SDS011;67480;48.920;12.880;2023-05-16T06:00:26;10.77;;;9.68;;
78205;SDS011;67480;48.920;12.880;2023-05-16T06:02:53;10.50;;;9.50;;
78205;SDS011;67480;48.920;12.880;2023-05-16T06:05:18;10.52;;;9.52;;
78205;SDS011;67480;48.920;12.880;2023-05-16T06:07:44;11.07;;;9.98;;
78205;SDS011;67480;48.920;12.880;2023-05-16T06:10:09;10.98;;;9.88;;
78205;SDS011;67480;48.920;12.880;2023-05-16T06:12:34;12.20;;;10.05;;
78205;SDS011;67480;48.920;12.880;2023-05-16T06:15:00;12.77;;;10.05;;
78205;SDS011;67480;48.920;12.880;2023-05-16T06:17:25;11.50;;;10.40;;
78205;SDS011;67480;48.920;12.880;2023-05-16T06:19:50;11.65;;;10.05;;
78205;SDS011;67480;48.920;12.880;2023-05-16T06:22:16;11.05;;;9.98;;
78205;SDS011;67480;48.920;12.880;2023-05-16T06:24:41;10.75;;;9.63;;
78205;SDS011;67480;48.920;12.880;2023-05-16T06:27:07;10.68;;;9.35;;
78205;SDS011;67480;48.920;12.880;2023-05-16T06:29:32;10.70;;;9.60;;
78205;SDS011;67480;48.920;12.880;2023-05-16T06:31:58;11.23;;;9.38;;
78205;SDS011;67480;48.920;12.880;2023-05-16T06:34:23;10.10;;;9.10;;
78205;SDS011;67480;48.920;12.880;2023-05-16T06:36:52;12.88;;;11.57;;
78205;SDS011;67480;48.920;12.880;2023-05-16T06:39:17;12.93;;;11.63;;
78205;SDS011;67480;48.920;12.880;2023-05-16T06:41:43;12.73;;;11.45;;
78205;SDS011;67480;48.920;12.880;2023-05-16T06:44:08;11.48;;;10.38;;
78205;SDS011;67480;48.920;12.880;2023-05-16T06:46:33;11.55;;;10.43;;
78205;SDS011;67480;48.920;12.880;2023-05-16T06:48:58;13.60;;;12.25;;
78205;SDS011;67480;48.920;12.880;2023-05-16T06:51:24;12.23;;;10.93;;
78205;SDS011;67480;48.920;12.880;2023-05-16T06:53:49;13.23;;;10.80;;
78205;SDS011;67480;48.920;12.880;2023-05-16T06:56:15;13.45;;;12.02;;
78205;SDS011;67480;48.920;12.880;2023-05-16T06:58:40;14.93;;;11.88;;
78205;SDS011;67480;48.920;12.880;2023-05-16T07:01:05;12.43;;;11.13;;
78205;SDS011;67480;48.920;12.880;2023-05-16T07:03:31;12.73;;;10.55;;
78205;SDS011;67480;48.920;12.880;2023-05-16T07:05:56;12.00;;;10.75;;
78205;SDS011;67480;48.920;12.880;2023-05-16T07:08:22;11.95;;;10.43;;
78205;SDS011;67480;48.920;12.880;2023-05-16T07:10:48;13.05;;;10.85;;
78205;SDS011;67480;48.920;12.880;2023-05-16T07:13:13;12.32;;;11.02;;
78205;SDS011;67480;48.920;12.880;2023-05-16T07:15:39;11.95;;;10.75;;
78205;SDS011;67480;48.920;12.880;2023-05-16T07:18:04;12.55;;;11.13;;
78205;SDS011;67480;48.920;12.880;2023-05-16T07:20:30;13.60;;;11.45;;
78205;SDS011;67480;48.920;12.880;2023-05-16T07:22:55;14.73;;;11.23;;
78205;SDS011;67480;48.920;12.880;2023-05-16T07:25:23;12.02;;;10.82;;
78205;SDS011;67480;48.920;12.880;2023-05-16T07:27:49;11.80;;;10.60;;
78205;SDS011;67480;48.920;12.880;2023-05-16T07:30:15;12.23;;;11.00;;
78205;SDS011;67480;48.920;12.880;2023-05-16T07:32:40;11.70;;;10.23;;
78205;SDS011;67480;48.920;12.880;2023-05-16T07:35:07;11.77;;;10.18;;
78205;SDS011;67480;48.920;12.880;2023-05-16T07:37:33;11.95;;;10.20;;
78205;SDS011;67480;48.920;12.880;2023-05-16T07:39:58;13.40;;;10.65;;
78205;SDS011;67480;48.920;12.880;2023-05-16T07:42:24;12.00;;;10.27;;
78205;SDS011;67480;48.920;12.880;2023-05-16T07:44:49;10.70;;;9.57;;
78205;SDS011;67480;48.920;12.880;2023-05-16T07:47:15;11.45;;;10.35;;
78205;SDS011;67480;48.920;12.880;2023-05-16T07:49:40;14.32;;;9.55;;
78205;SDS011;67480;48.920;12.880;2023-05-16T07:52:05;10.13;;;9.07;;
78205;SDS011;67480;48.920;12.880;2023-05-16T07:54:31;10.73;;;9.63;;
78205;SDS011;67480;48.920;12.880;2023-05-16T07:56:57;11.07;;;9.93;;
78205;SDS011;67480;48.920;12.880;2023-05-16T07:59:22;10.48;;;9.48;;
78205;SDS011;67480;48.920;12.880;2023-05-16T08:01:48;10.70;;;9.52;;
78205;SDS011;67480;48.920;12.880;2023-05-16T08:04:13;10.13;;;9.23;;
78205;SDS011;67480;48.920;12.880;2023-05-16T08:06:39;12.60;;;10.98;;
78205;SDS011;67480;48.920;12.880;2023-05-16T08:09:04;10.52;;;9.40;;
78205;SDS011;67480;48.920;12.880;2023-05-16T08:11:29;11.73;;;10.63;;
78205;SDS011;67480;48.920;12.880;2023-05-16T08:13:55;12.07;;;10.93;;
78205;SDS011;67480;48.920;12.880;2023-05-16T08:16:20;12.15;;;10.40;;
78205;SDS011;67480;48.920;12.880;2023-05-16T08:18:45;12.02;;;10.82;;
78205;SDS011;67480;48.920;12.880;2023-05-16T08:21:10;11.68;;;10.48;;
78205;SDS011;67480;48.920;12.880;2023-05-16T08:23:38;13.65;;;11.13;;
78205;SDS011;67480;48.920;12.880;2023-05-16T08:26:03;11.07;;;9.90;;
78205;SDS011;67480;48.920;12.880;2023-05-16T08:28:29;11.93;;;10.27;;
78205;SDS011;67480;48.920;12.880;2023-05-16T08:30:54;12.38;;;10.75;;
78205;SDS011;67480;48.920;12.880;2023-05-16T08:33:20;11.40;;;10.20;;
78205;SDS011;67480;48.920;12.880;2023-05-16T08:35:45;11.18;;;10.18;;
78205;SDS011;67480;48.920;12.880;2023-05-16T08:38:13;12.57;;;11.27;;
78205;SDS011;67480;48.920;12.880;2023-05-16T08:40:39;12.93;;;11.63;;
78205;SDS011;67480;48.920;12.880;2023-05-16T08:43:04;12.68;;;11.38;;
78205;SDS011;67480;48.920;12.880;2023-05-16T08:45:30;13.30;;;11.90;;
78205;SDS011;67480;48.920;12.880;2023-05-16T08:47:56;13.98;;;12.48;;
78205;SDS011;67480;48.920;12.880;2023-05-16T08:50:23;16.65;;;12.88;;
78205;SDS011;67480;48.920;12.880;2023-05-16T08:52:50;13.40;;;11.98;;
78205;SDS011;67480;48.920;12.880;2023-05-16T08:55:16;14.05;;;12.68;;
78205;SDS011;67480;48.920;12.880;2023-05-16T08:57:43;12.93;;;11.52;;
78205;SDS011;67480;48.920;12.880;2023-05-16T09:00:09;13.60;;;12.20;;
78205;SDS011;67480;48.920;12.880;2023-05-16T09:02:39;12.52;;;11.27;;
78205;SDS011;67480;48.920;12.880;2023-05-16T09:05:07;13.50;;;12.10;;
78205;SDS011;67480;48.920;12.880;2023-05-16T09:07:35;13.52;;;12.13;;
78205;SDS011;67480;48.920;12.880;2023-05-16T09:10:01;15.10;;;12.68;;
78205;SDS011;67480;48.920;12.880;2023-05-16T09:12:26;12.90;;;11.45;;
78205;SDS011;67480;48.920;12.880;2023-05-16T09:14:52;13.30;;;11.38;;
78205;SDS011;67480;48.920;12.880;2023-05-16T09:17:17;12.18;;;10.95;;
78205;SDS011;67480;48.920;12.880;2023-05-16T09:19:42;13.45;;;11.73;;
78205;SDS011;67480;48.920;12.880;2023-05-16T09:22:09;12.40;;;11.15;;
78205;SDS011;67480;48.920;12.880;2023-05-16T09:24:38;11.50;;;10.40;;
78205;SDS011;67480;48.920;12.880;2023-05-16T09:27:07;10.93;;;9.85;;
78205;SDS011;67480;48.920;12.880;2023-05-16T09:29:43;12.37;;;9.53;;
78205;SDS011;67480;48.920;12.880;2023-05-16T09:32:14;10.25;;;9.35;;
78205;SDS011;67480;48.920;12.880;2023-05-16T09:34:44;10.38;;;9.27;;
78205;SDS011;67480;48.920;12.880;2023-05-16T09:37:13;9.63;;;8.73;;
78205;SDS011;67480;48.920;12.880;2023-05-16T09:39:39;10.02;;;9.02;;
78205;SDS011;67480;48.920;12.880;2023-05-16T09:42:15;9.68;;;8.77;;
78205;SDS011;67480;48.920;12.880;2023-05-16T09:44:47;10.25;;;9.35;;
78205;SDS011;67480;48.920;12.880;2023-05-16T09:47:15;10.75;;;9.73;;
78205;SDS011;67480;48.920;12.880;2023-05-16T09:49:42;15.85;;;11.80;;
78205;SDS011;67480;48.920;12.880;2023-05-16T09:52:08;13.65;;;12.10;;
78205;SDS011;67480;48.920;12.880;2023-05-16T09:54:34;13.65;;;12.32;;
78205;SDS011;67480;48.920;12.880;2023-05-16T09:56:59;14.50;;;12.88;;
78205;SDS011;67480;48.920;12.880;2023-05-16T09:59:29;15.52;;;13.02;;
78205;SDS011;67480;48.920;12.880;2023-05-16T10:02:04;14.50;;;13.00;;
78205;SDS011;67480;48.920;12.880;2023-05-16T10:04:31;14.30;;;12.77;;
78205;SDS011;67480;48.920;12.880;2023-05-16T10:06:58;17.23;;;13.95;;
78205;SDS011;67480;48.920;12.880;2023-05-16T10:09:26;15.35;;;13.75;;
78205;SDS011;67480;48.920;12.880;2023-05-16T10:11:52;16.92;;;14.27;;
78205;SDS011;67480;48.920;12.880;2023-05-16T10:14:20;14.80;;;13.30;;
78205;SDS011;67480;48.920;12.880;2023-05-16T10:16:47;15.98;;;14.38;;
78205;SDS011;67480;48.920;12.880;2023-05-16T10:19:14;16.38;;;14.65;;
78205;SDS011;67480;48.920;12.880;2023-05-16T10:21:41;17.20;;;15.15;;
78205;SDS011;67480;48.920;12.880;2023-05-16T10:24:10;23.02;;;18.75;;
78205;SDS011;67480;48.920;12.880;2023-05-16T10:26:39;20.50;;;17.05;;
78205;SDS011;67480;48.920;12.880;2023-05-16T10:29:05;16.45;;;14.75;;
78205;SDS011;67480;48.920;12.880;2023-05-16T10:31:31;16.77;;;14.88;;
78205;SDS011;67480;48.920;12.880;2023-05-16T10:33:56;20.35;;;16.23;;
78205;SDS011;67480;48.920;12.880;2023-05-16T10:36:22;17.13;;;15.32;;
78205;SDS011;67480;48.920;12.880;2023-05-16T10:38:48;16.38;;;14.10;;
78205;SDS011;67480;48.920;12.880;2023-05-16T10:41:15;14.82;;;13.30;;
78205;SDS011;67480;48.920;12.880;2023-05-16T10:43:42;15.50;;;13.90;;
78205;SDS011;67480;48.920;12.880;2023-05-16T10:46:09;15.70;;;14.00;;
78205;SDS011;67480;48.920;12.880;2023-05-16T10:48:36;14.77;;;13.27;;
78205;SDS011;67480;48.920;12.880;2023-05-16T10:51:03;17.90;;;14.80;;
78205;SDS011;67480;48.920;12.880;2023-05-16T10:53:53;14.98;;;13.57;;
78205;SDS011;67480;48.920;12.880;2023-05-16T10:56:28;22.52;;;20.02;;
78205;SDS011;67480;48.920;12.880;2023-05-16T10:58:53;15.65;;;13.98;;
78205;SDS011;67480;48.920;12.880;2023-05-16T11:01:23;16.48;;;14.82;;
78205;SDS011;67480;48.920;12.880;2023-05-16T11:06:23;17.42;;;15.73;;
78205;SDS011;67480;48.920;12.880;2023-05-16T11:14:24;17.00;;;15.30;;
78205;SDS011;67480;48.920;12.880;2023-05-16T11:19:33;16.50;;;14.32;;
78205;SDS011;67480;48.920;12.880;2023-05-16T11:24:44;17.65;;;15.93;;
78205;SDS011;67480;48.920;12.880;2023-05-16T11:27:24;18.07;;;16.27;;
78205;SDS011;67480;48.920;12.880;2023-05-16T11:29:51;17.75;;;15.95;;
78205;SDS011;67480;48.920;12.880;2023-05-16T11:32:20;18.42;;;16.52;;
78205;SDS011;67480;48.920;12.880;2023-05-16T11:34:46;19.23;;;16.55;;
78205;SDS011;67480;48.920;12.880;2023-05-16T11:37:12;18.67;;;16.77;;
78205;SDS011;67480;48.920;12.880;2023-05-16T11:39:39;17.52;;;15.77;;
78205;SDS011;67480;48.920;12.880;2023-05-16T11:42:04;17.63;;;15.75;;
78205;SDS011;67480;48.920;12.880;2023-05-16T11:44:30;18.98;;;16.10;;
78205;SDS011;67480;48.920;12.880;2023-05-16T11:46:55;16.95;;;15.13;;
78205;SDS011;67480;48.920;12.880;2023-05-16T11:49:21;17.83;;;15.98;;
78205;SDS011;67480;48.920;12.880;2023-05-16T11:51:46;17.38;;;14.45;;
78205;SDS011;67480;48.920;12.880;2023-05-16T11:54:13;16.75;;;15.05;;
78205;SDS011;67480;48.920;12.880;2023-05-16T11:56:39;15.85;;;14.18;;
78205;SDS011;67480;48.920;12.880;2023-05-16T11:59:05;17.58;;;14.80;;
78205;SDS011;67480;48.920;12.880;2023-05-16T12:01:38;17.00;;;15.15;;
78205;SDS011;67480;48.920;12.880;2023-05-16T12:04:07;17.63;;;15.45;;
78205;SDS011;67480;48.920;12.880;2023-05-16T12:06:33;14.43;;;13.00;;
78205;SDS011;67480;48.920;12.880;2023-05-16T12:08:59;16.67;;;14.98;;
78205;SDS011;67480;48.920;12.880;2023-05-16T12:11:27;14.98;;;13.38;;
78205;SDS011;67480;48.920;12.880;2023-05-16T12:13:54;16.48;;;13.90;;
78205;SDS011;67480;48.920;12.880;2023-05-16T12:16:19;14.40;;;12.43;;
78205;SDS011;67480;48.920;12.880;2023-05-16T12:18:45;14.35;;;12.80;;
78205;SDS011;67480;48.920;12.880;2023-05-16T12:21:11;14.40;;;12.50;;
78205;SDS011;67480;48.920;12.880;2023-05-16T12:23:37;16.88;;;14.18;;
78205;SDS011;67480;48.920;12.880;2023-05-16T12:26:02;15.88;;;13.20;;
78205;SDS011;67480;48.920;12.880;2023-05-16T12:28:31;15.40;;;13.80;;
78205;SDS011;67480;48.920;12.880;2023-05-16T12:31:01;15.25;;;13.65;;
78205;SDS011;67480;48.920;12.880;2023-05-16T12:33:27;14.68;;;13.18;;
78205;SDS011;67480;48.920;12.880;2023-05-16T12:35:52;14.65;;;13.20;;
78205;SDS011;67480;48.920;12.880;2023-05-16T12:38:18;18.67;;;13.95;;
78205;SDS011;67480;48.920;12.880;2023-05-16T12:40:44;16.13;;;14.48;;
78205;SDS011;67480;48.920;12.880;2023-05-16T12:43:20;17.63;;;15.00;;
78205;SDS011;67480;48.920;12.880;2023-05-16T12:45:54;16.70;;;14.98;;
78205;SDS011;67480;48.920;12.880;2023-05-16T12:48:21;20.30;;;16.35;;
78205;SDS011;67480;48.920;12.880;2023-05-16T12:50:48;14.32;;;12.82;;
78205;SDS011;67480;48.920;12.880;2023-05-16T12:53:16;13.02;;;9.30;;
78205;SDS011;67480;48.920;12.880;2023-05-16T12:55:42;9.13;;;7.00;;
78205;SDS011;67480;48.920;12.880;2023-05-16T12:58:09;9.52;;;7.25;;
78205;SDS011;67480;48.920;12.880;2023-05-16T13:00:35;7.13;;;6.45;;
78205;SDS011;67480;48.920;12.880;2023-05-16T13:03:01;7.55;;;6.63;;
78205;SDS011;67480;48.920;12.880;2023-05-16T13:05:27;7.88;;;6.90;;
78205;SDS011;67480;48.920;12.880;2023-05-16T13:07:52;8.38;;;7.50;;
78205;SDS011;67480;48.920;12.880;2023-05-16T13:10:18;9.32;;;8.20;;
78205;SDS011;67480;48.920;12.880;2023-05-16T13:12:44;8.48;;;7.28;;
78205;SDS011;67480;48.920;12.880;2023-05-16T13:15:09;8.15;;;7.22;;
78205;SDS011;67480;48.920;12.880;2023-05-16T13:17:36;8.85;;;7.38;;
78205;SDS011;67480;48.920;12.880;2023-05-16T13:20:02;10.45;;;7.53;;
78205;SDS011;67480;48.920;12.880;2023-05-16T13:22:32;9.10;;;7.45;;
78205;SDS011;67480;48.920;12.880;2023-05-16T13:24:58;8.15;;;7.35;;
78205;SDS011;67480;48.920;12.880;2023-05-16T13:27:23;10.60;;;9.05;;
78205;SDS011;67480;48.920;12.880;2023-05-16T13:29:48;9.02;;;8.05;;
78205;SDS011;67480;48.920;12.880;2023-05-16T13:32:14;9.07;;;8.18;;
78205;SDS011;67480;48.920;12.880;2023-05-16T13:34:39;10.32;;;9.00;;
78205;SDS011;67480;48.920;12.880;2023-05-16T13:37:04;11.02;;;9.90;;
78205;SDS011;67480;48.920;12.880;2023-05-16T13:39:29;10.90;;;9.80;;
78205;SDS011;67480;48.920;12.880;2023-05-16T13:41:55;10.85;;;9.75;;
78205;SDS011;67480;48.920;12.880;2023-05-16T13:44:20;11.95;;;9.73;;
78205;SDS011;67480;48.920;12.880;2023-05-16T13:46:46;10.00;;;9.10;;
78205;SDS011;67480;48.920;12.880;2023-05-16T13:49:12;9.65;;;8.73;;
78205;SDS011;67480;48.920;12.880;2023-05-16T13:51:37;9.98;;;8.98;;
78205;SDS011;67480;48.920;12.880;2023-05-16T13:54:03;10.85;;;9.32;;
78205;SDS011;67480;48.920;12.880;2023-05-16T13:56:28;9.63;;;8.73;;
78205;SDS011;67480;48.920;12.880;2023-05-16T13:58:53;9.95;;;8.95;;
78205;SDS011;67480;48.920;12.880;2023-05-16T14:01:19;10.57;;;9.57;;
78205;SDS011;67480;48.920;12.880;2023-05-16T14:03:45;10.48;;;8.50;;
78205;SDS011;67480;48.920;12.880;2023-05-16T14:06:10;10.57;;;9.00;;
78205;SDS011;67480;48.920;12.880;2023-05-16T14:08:36;10.13;;;9.13;;
78205;SDS011;67480;48.920;12.880;2023-05-16T14:11:01;9.23;;;8.02;;
78205;SDS011;67480;48.920;12.880;2023-05-16T14:13:26;9.95;;;9.02;;
78205;SDS011;67480;48.920;12.880;2023-05-16T14:15:51;9.90;;;8.55;;
78205;SDS011;67480;48.920;12.880;2023-05-16T14:18:17;9.45;;;8.55;;
78205;SDS011;67480;48.920;12.880;2023-05-16T14:20:42;10.32;;;8.63;;
78205;SDS011;67480;48.920;12.880;2023-05-16T14:23:07;22.98;;;20.27;;
78205;SDS011;67480;48.920;12.880;2023-05-16T14:25:33;29.23;;;21.08;;
78205;SDS011;67480;48.920;12.880;2023-05-16T14:27:58;12.95;;;10.65;;
78205;SDS011;67480;48.920;12.880;2023-05-16T14:30:23;11.48;;;10.23;;
78205;SDS011;67480;48.920;12.880;2023-05-16T14:32:49;16.73;;;14.95;;
78205;SDS011;67480;48.920;12.880;2023-05-16T14:35:15;11.60;;;10.40;;
78205;SDS011;67480;48.920;12.880;2023-05-16T14:37:40;10.82;;;9.73;;
78205;SDS011;67480;48.920;12.880;2023-05-16T14:40:05;17.88;;;15.93;;